Weather at Kotoka International Airport

Public forecast

Using degrees Celsius for public forecast. Weather courtesy of forecast.io.

Current aviation weather report (METAR) for Kotoka International Airport

2024/06/18 19:00 (retrieved 27 minutes ago)

DGAA 181900Z 21011KT 9999 FEW017 FEW030CB 27/25 Q1011 NOSIG

Aviation forecast (TAF) for Kotoka International Airport

2024/06/18 18:22 (retrieved 1 hour ago)

TAF DGAA 181700Z 1818/1924 19010KT 9999 FEW015 TEMPO 1823/1901 27008KT BECMG 1905/1907 BKN014 BECMG 1910/1912 18010KT SCT025